Godmanchester, United Kingdom
Current Conditions -  °F | °C
As of 7:20 PM on Thursday 29 Jan 2015 (Local Time) from EGSC Reporting Station
Few Clouds Few Clouds  
Wind Chill: 25°   Ceiling: Unl
Heat Index: 34°   Visibility: 6mi
Dew Point: 30°   Wind: 13mph
Humidity: 87%   Direction: 260°W
Pressure: 28.82"   Gusts: NA
Location:  52.32°N, 0.18°W
Report Text: EGSC 291920Z 26011KT 9999 FEW039 01/M01 Q0976
Loading
Personal Weather Stations






























Interactive Weather Map New forecast layout! Learn more

10-Day Weather Forecast

Advertisements
Track Severe Weather on mobile